Amparo, Brazil
Current Conditions -  °F | °C
As of 2:00 PM on Thursday 30 Oct 2014 (Local Time) from SBKP Reporting Station
Broken Clouds Broken Clouds  
Wind Chill: 93°   Ceiling: 4500
Heat Index: 93°   Visibility: 6mi
Dew Point: 46°   Wind: 14mph
Humidity: 20%   Direction: 350°N
Pressure: 29.85"   Gusts: NA
Location:  22.7°S, 46.76°W
Report Text: SBKP 301600Z 35012KT 290V080 9999 BKN045 34/08 Q1011
Loading
Personal Weather Stations






























Interactive Weather Map
Tropical Storm Tracking
New forecast layout! Learn more

10-Day Weather Forecast

Advertisements
Track Severe Weather on mobile